Time;durP1;ratioP1;P1;durP2;ratioP2;P2;SDS_P1;SDS_P2;PMS_P1;PMS_P2;Temp;Humidity;BMP_temperature;BMP_pressure;BME280_temperature;BME280_humidity;BME280_pressure;Samples;Min_cycle;Max_cycle;Signal;HPM_P1;HPM_P2
2022/08/12 00:43:16;;;;;;;4.35;1.63;;;24.50;58.10;;;;;;7686568;22;81885;-70
2022/08/12 00:46:31;;;;;;;2.38;1.70;;;24.50;58.10;;;;;;7687090;22;81632;-69
2022/08/12 00:49:31;;;;;;;2.00;1.80;;;24.50;58.30;;;;;;7686872;22;80357;-69
2022/08/12 00:52:32;;;;;;;2.78;1.50;;;24.40;58.20;;;;;;7687121;22;80389;-70
2022/08/12 00:55:32;;;;;;;2.58;1.42;;;24.40;58.20;;;;;;7687627;22;80588;-69
2022/08/12 00:58:33;;;;;;;3.20;1.60;;;24.40;58.30;;;;;;7687622;22;80536;-71
2022/08/12 01:01:34;;;;;;;3.05;2.05;;;24.40;58.30;;;;;;7685388;22;83327;-70
2022/08/12 01:11:28;;;;;;;2.90;1.88;;;24.40;58.40;;;;;;7686989;22;80587;-69
2022/08/12 01:14:29;;;;;;;2.22;1.70;;;24.40;58.20;;;;;;7686694;22;85139;-70
2022/08/12 01:17:29;;;;;;;2.97;1.63;;;24.40;58.20;;;;;;7687973;22;80407;-70
2022/08/12 01:20:30;;;;;;;3.70;1.70;;;24.40;58.30;;;;;;7688062;22;80271;-72
2022/08/12 01:23:30;;;;;;;2.63;1.70;;;24.40;58.40;;;;;;7687815;22;81244;-72
2022/08/12 01:26:31;;;;;;;3.17;2.20;;;24.40;58.50;;;;;;7687046;22;80335;-70
2022/08/12 01:29:33;;;;;;;1.80;1.48;;;24.40;58.50;;;;;;7686982;22;80247;-71
2022/08/12 01:32:37;;;;;;;2.50;1.52;;;24.40;58.40;;;;;;7687103;22;80370;-71
2022/08/12 01:35:37;;;;;;;2.70;1.95;;;24.30;58.40;;;;;;7687159;22;81500;-71
2022/08/12 01:38:38;;;;;;;1.88;1.67;;;24.40;58.40;;;;;;7687375;22;80741;-70
2022/08/12 01:41:39;;;;;;;1.77;1.55;;;24.40;58.40;;;;;;7686983;22;80793;-70
2022/08/12 01:44:40;;;;;;;11.27;2.63;;;24.40;58.40;;;;;;7687500;22;80248;-70
2022/08/12 01:47:41;;;;;;;3.63;1.73;;;24.40;58.50;;;;;;7687401;22;80783;-71
2022/08/12 01:50:42;;;;;;;2.88;1.73;;;24.40;58.50;;;;;;7687099;22;80963;-71
2022/08/12 01:53:45;;;;;;;4.03;2.40;;;24.40;58.40;;;;;;7686033;22;80094;-70
2022/08/12 01:56:47;;;;;;;5.95;2.22;;;24.40;58.30;;;;;;7686865;22;80269;-70
2022/08/12 01:59:48;;;;;;;2.40;1.85;;;24.40;58.20;;;;;;7686830;22;80323;-70
2022/08/12 02:02:50;;;;;;;1.80;1.60;;;24.40;58.30;;;;;;7687104;22;80270;-70
2022/08/12 02:12:29;;;;;;;1.77;1.60;;;24.30;58.10;;;;;;7687875;22;80094;-71
2022/08/12 02:15:30;;;;;;;4.38;1.67;;;24.40;58.10;;;;;;7687174;22;81379;-71
2022/08/12 02:18:30;;;;;;;2.33;1.90;;;24.40;58.20;;;;;;7687267;22;80338;-70
2022/08/12 02:21:31;;;;;;;2.85;1.50;;;24.40;58.00;;;;;;7687602;22;80271;-70
2022/08/12 02:24:32;;;;;;;2.92;1.50;;;24.40;58.10;;;;;;7687739;22;83531;-69
2022/08/12 02:27:33;;;;;;;1.38;1.27;;;24.40;58.10;;;;;;7688350;22;80277;-70
2022/08/12 02:30:35;;;;;;;2.15;1.77;;;24.30;58.00;;;;;;7688070;22;80205;-69
2022/08/12 02:33:36;;;;;;;3.55;1.83;;;24.40;58.00;;;;;;7687969;22;81394;-70
2022/08/12 02:36:37;;;;;;;2.00;1.80;;;24.30;58.00;;;;;;7687333;22;80399;-69
2022/08/12 02:39:37;;;;;;;3.03;1.80;;;24.30;57.90;;;;;;7686927;22;80782;-69
2022/08/12 02:42:38;;;;;;;2.83;1.90;;;24.30;57.90;;;;;;7686773;22;80559;-71
2022/08/12 02:45:38;;;;;;;2.25;1.63;;;24.30;57.90;;;;;;7687762;22;80448;-71
2022/08/12 02:48:39;;;;;;;2.55;1.65;;;24.30;57.90;;;;;;7687614;22;81564;-71
2022/08/12 02:51:39;;;;;;;1.88;1.63;;;24.30;57.90;;;;;;7686955;22;81150;-72
2022/08/12 02:54:42;;;;;;;3.35;1.90;;;24.30;57.90;;;;;;7685994;22;81480;-71
2022/08/12 02:57:43;;;;;;;2.75;1.80;;;24.30;57.90;;;;;;7687778;22;80695;-71
2022/08/12 03:00:43;;;;;;;3.00;1.80;;;24.30;57.80;;;;;;7685949;22;80531;-71
2022/08/12 03:03:44;;;;;;;4.93;2.45;;;24.20;57.70;;;;;;7687507;22;81236;-70
2022/08/12 03:06:44;;;;;;;5.88;3.22;;;24.20;57.80;;;;;;7686866;22;80178;-69
2022/08/12 03:09:45;;;;;;;7.30;3.05;;;24.20;57.80;;;;;;7686023;22;81227;-69
2022/08/12 03:12:45;;;;;;;4.05;3.30;;;24.20;57.80;;;;;;7685296;22;80954;-70
2022/08/12 03:15:46;;;;;;;7.35;3.15;;;24.20;57.80;;;;;;7685643;22;80267;-70
2022/08/12 03:18:47;;;;;;;6.05;3.53;;;24.20;57.80;;;;;;7686580;22;80240;-71
2022/08/12 03:21:49;;;;;;;4.78;3.38;;;24.20;57.80;;;;;;7685450;22;81318;-71
2022/08/12 03:24:49;;;;;;;6.28;3.45;;;24.20;57.80;;;;;;7687585;22;80886;-73
2022/08/12 03:27:54;;;;;;;7.30;3.33;;;24.20;57.80;;;;;;7687499;22;80419;-71
2022/08/12 03:30:55;;;;;;;4.82;3.22;;;24.20;57.90;;;;;;7685420;22;81302;-70
2022/08/12 03:33:56;;;;;;;5.85;3.47;;;24.20;57.80;;;;;;7687296;22;81525;-71
2022/08/12 03:36:57;;;;;;;3.78;2.63;;;24.20;57.80;;;;;;7687599;22;80742;-68
2022/08/12 03:39:57;;;;;;;6.38;2.88;;;24.20;57.70;;;;;;7687320;22;80295;-68
2022/08/12 04:03:00;;;;;;;6.38;2.95;;;24.30;57.80;;;;;;7687202;22;80505;-69
2022/08/12 04:06:01;;;;;;;6.70;2.95;;;24.30;57.80;;;;;;7687496;22;80199;-69
2022/08/12 04:09:01;;;;;;;5.55;3.08;;;24.30;57.80;;;;;;7685494;22;80506;-69
2022/08/12 04:15:24;;;;;;;6.97;2.72;;;24.40;58.00;;;;;;7687148;22;80793;-69
2022/08/12 04:18:25;;;;;;;5.20;2.95;;;24.40;57.90;;;;;;7687221;22;80563;-70
2022/08/12 04:21:26;;;;;;;4.28;2.65;;;24.40;57.90;;;;;;7686818;22;80239;-68
2022/08/12 04:24:27;;;;;;;9.32;3.45;;;24.40;58.10;;;;;;7687264;22;80319;-69
2022/08/12 04:27:30;;;;;;;6.95;3.25;;;24.40;58.00;;;;;;7687362;22;80378;-70
2022/08/12 04:30:30;;;;;;;7.03;3.53;;;24.40;58.00;;;;;;7686110;22;80541;-68
2022/08/12 04:33:31;;;;;;;9.07;2.92;;;24.50;57.80;;;;;;7685813;22;80600;-67
2022/08/12 04:36:31;;;;;;;5.22;3.13;;;24.50;57.80;;;;;;7685235;22;80761;-68
2022/08/12 04:39:32;;;;;;;5.03;2.97;;;24.50;58.30;;;;;;7686993;22;80265;-66
2022/08/12 04:42:33;;;;;;;7.20;2.45;;;24.50;57.90;;;;;;7687120;22;80474;-67
2022/08/12 04:45:33;;;;;;;6.45;2.55;;;24.50;58.00;;;;;;7687458;22;80803;-67
2022/08/12 04:48:34;;;;;;;6.75;2.88;;;24.60;58.10;;;;;;7686988;22;80144;-68
2022/08/12 04:51:34;;;;;;;11.60;2.90;;;24.60;58.10;;;;;;7685716;22;80387;-67
2022/08/12 04:54:35;;;;;;;5.32;2.70;;;24.60;58.00;;;;;;7686784;22;80238;-67
2022/08/12 04:57:35;;;;;;;5.32;2.85;;;24.60;57.90;;;;;;7687541;22;81459;-67
2022/08/12 05:00:36;;;;;;;4.80;2.47;;;24.60;57.90;;;;;;7686724;22;80640;-70
2022/08/12 05:03:37;;;;;;;13.32;2.75;;;24.60;57.80;;;;;;7687026;22;80444;-66
2022/08/12 05:06:37;;;;;;;3.30;2.83;;;24.60;58.00;;;;;;7687214;22;80476;-67
2022/08/12 05:09:38;;;;;;;7.55;2.90;;;24.60;57.90;;;;;;7686787;22;80488;-70
2022/08/12 05:12:38;;;;;;;7.40;2.67;;;24.60;58.10;;;;;;7686777;22;80405;-68
2022/08/12 05:15:39;;;;;;;8.65;3.10;;;24.60;58.80;;;;;;7687003;22;87504;-72
2022/08/12 05:18:39;;;;;;;5.18;2.95;;;24.60;58.20;;;;;;7687077;22;81353;-70
2022/08/12 05:21:40;;;;;;;4.88;2.85;;;24.60;58.20;;;;;;7686887;22;80636;-68
2022/08/12 05:24:40;;;;;;;8.13;4.10;;;24.60;58.30;;;;;;7685092;22;80583;-70
2022/08/12 05:27:41;;;;;;;9.77;4.55;;;24.60;58.70;;;;;;7686705;22;80431;-69
2022/08/12 05:30:41;;;;;;;8.02;4.18;;;24.60;58.90;;;;;;7686497;22;80347;-68
2022/08/12 05:33:44;;;;;;;16.42;4.10;;;24.70;58.80;;;;;;7686428;22;80167;-67
2022/08/12 05:36:45;;;;;;;7.38;3.80;;;24.70;58.80;;;;;;7686439;22;80352;-68
2022/08/12 05:39:45;;;;;;;18.80;5.00;;;24.70;58.90;;;;;;7686917;22;80775;-74
2022/08/12 05:42:46;;;;;;;12.05;4.40;;;24.80;59.20;;;;;;7686587;22;80231;-79
2022/08/12 05:45:46;;;;;;;5.18;3.20;;;24.80;59.10;;;;;;7686968;22;80437;-76
2022/08/12 05:48:48;;;;;;;10.10;3.83;;;24.80;59.10;;;;;;7687038;22;81374;-71
2022/08/12 05:51:48;;;;;;;4.97;3.53;;;24.80;59.30;;;;;;7687389;22;80740;-72
2022/08/12 05:54:49;;;;;;;5.22;3.00;;;24.80;59.50;;;;;;7685923;22;80688;-66
2022/08/12 05:57:49;;;;;;;6.68;3.45;;;24.80;59.40;;;;;;7686171;22;80381;-66
2022/08/12 06:00:50;;;;;;;6.45;3.17;;;24.80;59.40;;;;;;7685942;22;81177;-68
2022/08/12 06:03:51;;;;;;;6.82;3.13;;;24.90;59.40;;;;;;7685826;22;80467;-68
2022/08/12 06:06:52;;;;;;;8.75;3.00;;;24.90;59.60;;;;;;7683095;22;80457;-68
2022/08/12 06:13:01;;;;;;;6.47;3.05;;;24.90;59.10;;;;;;7612504;22;82343;-67
2022/08/12 06:16:01;;;;;;;5.60;3.20;;;24.90;59.20;;;;;;7684699;22;80416;-65
2022/08/12 06:19:01;;;;;;;5.38;2.90;;;25.00;59.60;;;;;;7685114;22;80344;-68
2022/08/12 06:22:02;;;;;;;7.20;3.40;;;25.00;59.70;;;;;;7686051;22;80241;-67
2022/08/12 06:25:02;;;;;;;6.25;3.20;;;25.00;59.50;;;;;;7686209;22;80461;-67
2022/08/12 06:28:03;;;;;;;3.63;2.88;;;25.00;59.80;;;;;;7685868;22;80600;-68
2022/08/12 06:31:05;;;;;;;4.97;2.88;;;25.00;59.70;;;;;;7684721;22;80020;-69
2022/08/12 06:34:05;;;;;;;5.88;3.13;;;25.00;59.50;;;;;;7685350;22;80338;-65
2022/08/12 06:37:06;;;;;;;6.70;3.00;;;25.00;59.50;;;;;;7683634;22;81639;-66
2022/08/12 06:40:06;;;;;;;5.57;2.80;;;25.00;59.60;;;;;;7686224;22;80457;-66
2022/08/12 06:43:07;;;;;;;9.35;3.70;;;25.10;59.40;;;;;;7687279;22;80592;-64
2022/08/12 06:46:08;;;;;;;6.35;3.30;;;25.10;59.60;;;;;;7687077;22;79917;-66
2022/08/12 06:49:12;;;;;;;8.23;3.55;;;25.10;59.40;;;;;;7685462;22;80457;-66
2022/08/12 06:52:12;;;;;;;8.43;2.95;;;25.10;59.40;;;;;;7687094;22;80288;-74
2022/08/12 06:55:14;;;;;;;7.90;3.00;;;25.10;59.40;;;;;;7688656;22;81574;-73
2022/08/12 06:58:15;;;;;;;5.18;3.35;;;25.10;60.00;;;;;;7688817;22;81735;-75
2022/08/12 07:01:17;;;;;;;8.90;3.55;;;25.10;59.30;;;;;;7688039;22;80263;-81
2022/08/12 07:04:17;;;;;;;4.45;3.22;;;25.10;59.10;;;;;;7687717;22;80564;-68
2022/08/12 07:07:18;;;;;;;7.57;3.72;;;25.10;59.20;;;;;;7688607;22;80822;-75
2022/08/12 07:10:22;;;;;;;6.32;3.53;;;25.10;59.20;;;;;;7684946;22;80439;-72
2022/08/12 07:13:23;;;;;;;7.40;4.18;;;25.10;59.30;;;;;;7650002;22;80157;-67
2022/08/12 07:16:25;;;;;;;4.22;3.20;;;25.10;59.30;;;;;;7649079;22;81798;-66
2022/08/12 07:19:26;;;;;;;5.72;3.38;;;25.10;59.30;;;;;;7647110;22;80532;-66
2022/08/12 07:22:26;;;;;;;7.40;4.22;;;25.10;59.20;;;;;;7648111;22;81038;-66
2022/08/12 07:25:30;;;;;;;6.70;3.58;;;25.10;59.40;;;;;;7649072;22;80283;-66
2022/08/12 07:28:32;;;;;;;7.28;4.15;;;25.10;59.40;;;;;;7649801;22;80440;-66
2022/08/12 07:31:33;;;;;;;7.60;4.60;;;25.10;59.50;;;;;;7649248;22;80649;-66
2022/08/12 07:34:35;;;;;;;9.98;4.18;;;25.10;59.20;;;;;;7649184;22;80308;-66
2022/08/12 07:37:36;;;;;;;9.95;4.50;;;25.10;59.20;;;;;;7647282;22;81592;-66
2022/08/12 07:40:36;;;;;;;6.43;3.95;;;25.10;59.40;;;;;;7649213;22;80816;-66
2022/08/12 07:43:37;;;;;;;7.15;3.95;;;25.10;59.20;;;;;;7648816;22;80263;-66
2022/08/12 07:46:37;;;;;;;7.38;4.55;;;25.10;59.20;;;;;;7648732;22;80726;-66
2022/08/12 07:49:38;;;;;;;6.88;4.07;;;25.10;59.20;;;;;;7648707;22;80432;-65
2022/08/12 07:52:40;;;;;;;11.15;4.15;;;25.10;59.20;;;;;;7649573;22;80424;-66
2022/08/12 07:55:40;;;;;;;7.97;4.30;;;25.10;59.30;;;;;;7649415;22;80326;-66
2022/08/12 07:58:41;;;;;;;6.10;4.70;;;25.10;59.30;;;;;;7648949;22;82319;-66
2022/08/12 08:01:42;;;;;;;6.60;4.18;;;25.10;59.20;;;;;;7648593;22;80180;-66
2022/08/12 08:04:54;;;;;;;6.72;4.38;;;25.20;59.30;;;;;;7649396;22;80193;-65
2022/08/12 08:08:00;;;;;;;10.55;4.53;;;25.10;59.30;;;;;;7649856;22;80386;-65
2022/08/12 08:14:20;;;;;;;6.30;4.05;;;25.10;59.40;;;;;;7648531;22;85665;-66
2022/08/12 08:17:21;;;;;;;4.22;3.40;;;25.10;59.90;;;;;;7648848;22;80437;-71
2022/08/12 08:20:23;;;;;;;5.65;4.13;;;25.10;59.60;;;;;;7649058;22;80264;-67
2022/08/12 08:24:13;;;;;;;5.50;3.55;;;25.10;59.60;;;;;;7649385;22;83217;-67
2022/08/12 08:26:47;;;;;;;6.13;4.30;;;25.20;59.50;;;;;;7648483;22;80258;-66
2022/08/12 08:29:47;;;;;;;4.80;4.30;;;25.20;59.20;;;;;;7646617;22;80407;-65
2022/08/12 08:32:48;;;;;;;9.57;3.88;;;25.20;59.10;;;;;;7647472;22;82008;-65
2022/08/12 08:35:54;;;;;;;4.95;3.60;;;25.20;59.00;;;;;;7649727;22;80270;-66
2022/08/12 08:38:55;;;;;;;5.72;3.90;;;25.20;59.10;;;;;;7649399;22;80418;-65
2022/08/12 08:45:15;;;;;;;9.38;3.58;;;25.20;59.10;;;;;;7649528;22;81646;-67
2022/08/12 08:48:16;;;;;;;3.63;3.22;;;25.20;59.10;;;;;;7649436;22;80278;-67
2022/08/12 08:51:17;;;;;;;6.28;3.97;;;25.20;59.30;;;;;;7649381;22;80161;-66
2022/08/12 08:54:17;;;;;;;5.45;3.92;;;25.20;59.30;;;;;;7649095;22;80447;-66
2022/08/12 08:57:19;;;;;;;4.72;3.17;;;25.30;59.30;;;;;;7645860;22;82931;-67
2022/08/12 09:00:19;;;;;;;6.95;4.15;;;25.30;59.40;;;;;;7648585;22;80172;-66
2022/08/12 09:03:20;;;;;;;4.95;3.38;;;25.30;59.50;;;;;;7648239;22;80376;-67
2022/08/12 09:06:22;;;;;;;4.18;3.60;;;25.30;59.50;;;;;;7649211;22;80570;-75
2022/08/12 09:09:22;;;;;;;10.57;4.47;;;25.30;59.60;;;;;;7649276;22;80576;-67
2022/08/12 09:15:42;;;;;;;5.20;4.18;;;25.20;60.40;;;;;;7648855;22;81551;-68
2022/08/12 09:18:42;;;;;;;4.70;4.20;;;25.20;60.20;;;;;;7649184;22;80384;-66
2022/08/12 09:21:45;;;;;;;5.72;4.50;;;25.20;60.90;;;;;;7647255;22;80789;-66
2022/08/12 09:24:46;;;;;;;8.23;5.38;;;25.00;61.30;;;;;;7646718;22;81566;-66
2022/08/12 09:27:46;;;;;;;12.77;4.35;;;24.90;61.60;;;;;;7648150;22;80267;-65
2022/08/12 09:30:51;;;;;;;7.00;4.70;;;25.00;62.00;;;;;;7649099;22;80960;-67
2022/08/12 09:33:51;;;;;;;8.00;4.57;;;24.90;62.00;;;;;;7649598;22;81295;-65
2022/08/12 09:36:53;;;;;;;6.72;4.43;;;24.80;62.00;;;;;;7648823;22;80602;-66
2022/08/12 09:39:53;;;;;;;6.80;4.68;;;24.70;62.20;;;;;;7649033;22;81344;-66
2022/08/12 09:46:16;;;;;;;12.27;6.18;;;24.60;63.40;;;;;;7648704;22;80716;-64
2022/08/12 09:49:16;;;;;;;14.70;5.25;;;24.60;64.00;;;;;;7649487;22;80235;-66
2022/08/12 09:52:17;;;;;;;10.85;4.95;;;24.70;64.80;;;;;;7649390;22;80291;-64
2022/08/12 09:55:18;;;;;;;7.20;5.13;;;24.70;64.70;;;;;;7649551;22;80710;-64
2022/08/12 09:58:20;;;;;;;7.18;5.05;;;24.80;65.00;;;;;;7648789;22;80262;-66
2022/08/12 10:01:20;;;;;;;9.00;4.88;;;24.90;65.80;;;;;;7649196;22;80504;-65
2022/08/12 10:04:21;;;;;;;7.35;4.80;;;25.00;67.60;;;;;;7649346;22;80396;-64
2022/08/12 10:07:21;;;;;;;8.13;4.80;;;25.00;67.30;;;;;;7648333;22;80581;-64
2022/08/12 10:10:22;;;;;;;9.70;5.50;;;25.10;67.40;;;;;;7649314;22;80493;-64
2022/08/12 10:13:41;;;;;;;9.15;5.75;;;25.20;66.70;;;;;;7648754;22;80412;-65
2022/08/12 10:16:44;;;;;;;12.27;5.90;;;25.20;68.20;;;;;;7647709;22;80351;-65
2022/08/12 10:19:45;;;;;;;11.88;5.32;;;25.10;65.80;;;;;;7649229;22;81718;-64
2022/08/12 10:22:45;;;;;;;20.35;6.60;;;25.20;65.40;;;;;;7647898;22;81306;-64
2022/08/12 10:32:49;;;;;;;9.70;5.25;;;25.10;64.80;;;;;;7498365;23;85957;-63
2022/08/12 10:35:52;;;;;;;;;;;25.10;64.30;;;;;;7499272;23;80350;-65
2022/08/12 10:38:53;;;;;;;7.20;5.43;;;25.10;63.70;;;;;;7626514;22;79745;-65
2022/08/12 10:45:16;;;;;;;6.35;5.00;;;25.20;63.40;;;;;;7647634;22;80607;-68
2022/08/12 10:48:19;;;;;;;10.23;4.53;;;25.20;63.50;;;;;;7648000;22;80632;-68
2022/08/12 10:51:20;;;;;;;6.15;4.60;;;25.10;64.00;;;;;;7648602;22;80447;-67
2022/08/12 10:54:21;;;;;;;12.85;4.82;;;25.20;63.80;;;;;;7648013;22;80431;-67
2022/08/12 10:57:25;;;;;;;6.88;4.22;;;25.30;63.30;;;;;;7648256;22;81345;-67
2022/08/12 11:00:25;;;;;;;8.20;4.03;;;25.30;63.30;;;;;;7647174;22;80276;-68
2022/08/12 11:03:26;;;;;;;8.98;4.43;;;25.30;63.30;;;;;;7649216;22;81614;-68
2022/08/12 11:06:26;;;;;;;5.18;4.45;;;25.20;62.70;;;;;;7651000;22;80031;-71
2022/08/12 11:09:29;;;;;;;8.48;4.05;;;25.20;62.90;;;;;;7648706;22;81088;-71
2022/08/12 11:12:30;;;;;;;11.25;4.50;;;25.20;63.70;;;;;;7646779;22;80355;-71
2022/08/12 11:15:31;;;;;;;6.68;3.80;;;25.10;62.50;;;;;;7648346;22;81403;-70
2022/08/12 11:18:31;;;;;;;6.07;3.33;;;25.10;61.70;;;;;;7648526;22;80320;-69
2022/08/12 11:21:32;;;;;;;6.80;3.88;;;25.10;61.60;;;;;;7648510;22;80142;-72
2022/08/12 11:24:32;;;;;;;5.55;4.22;;;25.10;61.50;;;;;;7647757;22;80066;-68
2022/08/12 11:27:33;;;;;;;7.60;3.85;;;25.10;61.50;;;;;;7647388;22;80734;-69
2022/08/12 11:30:33;;;;;;;8.70;4.25;;;25.10;62.00;;;;;;7648261;22;80708;-69
2022/08/12 11:33:34;;;;;;;5.10;4.00;;;25.20;61.30;;;;;;7648098;22;80746;-71
2022/08/12 11:36:34;;;;;;;6.13;3.75;;;25.20;60.40;;;;;;7649106;22;81637;-71
2022/08/12 11:39:35;;;;;;;11.00;5.20;;;25.10;60.30;;;;;;7649394;22;80033;-71
2022/08/12 11:42:35;;;;;;;7.22;4.68;;;25.10;60.90;;;;;;7649767;22;80150;-71
2022/08/12 11:45:36;;;;;;;8.75;5.50;;;25.00;61.30;;;;;;7650393;22;80460;-72
2022/08/12 11:48:36;;;;;;;10.55;5.43;;;25.00;61.40;;;;;;7651057;22;81757;-71
2022/08/12 11:51:37;;;;;;;6.63;4.95;;;25.00;62.20;;;;;;7650927;22;80574;-72
2022/08/12 11:54:37;;;;;;;10.35;5.90;;;25.00;62.20;;;;;;7648994;22;80552;-71
2022/08/12 11:57:38;;;;;;;10.82;6.18;;;25.00;62.20;;;;;;7648409;22;80723;-70
2022/08/12 12:00:38;;;;;;;11.43;6.07;;;25.00;62.10;;;;;;7650859;22;80187;-71
2022/08/12 12:03:39;;;;;;;11.07;5.68;;;25.00;62.30;;;;;;7650083;22;81752;-70
2022/08/12 12:06:39;;;;;;;11.50;5.88;;;24.90;62.20;;;;;;7650188;22;80347;-70
2022/08/12 12:09:40;;;;;;;12.05;6.68;;;24.90;62.10;;;;;;7649911;22;80767;-70
2022/08/12 12:12:40;;;;;;;11.10;6.28;;;24.90;62.20;;;;;;7650234;22;80496;-69
2022/08/12 12:15:41;;;;;;;12.88;6.78;;;24.90;62.00;;;;;;7650707;22;80460;-69
2022/08/12 12:18:41;;;;;;;12.65;6.07;;;24.90;61.90;;;;;;7650561;22;80416;-70
2022/08/12 12:21:42;;;;;;;12.75;6.70;;;24.90;62.20;;;;;;7648854;22;80444;-71
2022/08/12 12:24:45;;;;;;;11.30;5.80;;;24.90;62.20;;;;;;7650120;22;80392;-72
2022/08/12 12:27:45;;;;;;;13.02;6.30;;;24.90;62.20;;;;;;7649143;22;81373;-73
2022/08/12 12:30:46;;;;;;;9.38;5.78;;;24.90;62.20;;;;;;7650914;22;80447;-72
2022/08/12 12:33:46;;;;;;;8.45;5.43;;;25.00;61.90;;;;;;7649290;22;80401;-71
2022/08/12 12:36:47;;;;;;;14.15;5.82;;;25.00;61.50;;;;;;7648323;22;81345;-69
2022/08/12 12:39:48;;;;;;;12.60;5.95;;;25.10;61.20;;;;;;7649977;22;80633;-71
2022/08/12 12:42:48;;;;;;;6.90;4.50;;;25.00;61.40;;;;;;7649723;22;81085;-70
2022/08/12 12:45:52;;;;;;;10.60;5.15;;;25.00;61.60;;;;;;7650009;22;80195;-71
2022/08/12 12:48:52;;;;;;;8.98;5.43;;;25.10;61.60;;;;;;7650249;22;80316;-71
2022/08/12 12:51:53;;;;;;;14.80;5.55;;;25.20;62.10;;;;;;7650163;22;81173;-72
2022/08/12 12:54:57;;;;;;;7.85;4.90;;;25.30;61.80;;;;;;7649506;22;80462;-73
2022/08/12 12:57:57;;;;;;;6.28;4.68;;;25.20;61.40;;;;;;7649939;22;79926;-73
2022/08/12 13:00:58;;;;;;;5.75;4.20;;;25.20;61.20;;;;;;7650199;22;81488;-74
2022/08/12 13:03:59;;;;;;;10.55;4.75;;;25.20;61.10;;;;;;7649860;22;80579;-70
2022/08/12 13:06:59;;;;;;;8.30;4.28;;;25.20;60.80;;;;;;7648695;22;80430;-71
2022/08/12 13:10:00;;;;;;;5.75;4.43;;;25.20;61.10;;;;;;7649649;22;80708;-71
2022/08/12 13:13:01;;;;;;;11.35;5.90;;;25.20;61.10;;;;;;7648162;22;80692;-70
2022/08/12 13:16:02;;;;;;;6.57;4.00;;;25.20;61.30;;;;;;7650106;22;80495;-71
2022/08/12 13:19:02;;;;;;;5.30;4.07;;;25.20;61.10;;;;;;7648991;22;80973;-70
2022/08/12 13:22:16;;;;;;;4.88;3.35;;;25.20;61.30;;;;;;7648453;22;80721;-71
2022/08/12 13:25:18;;;;;;;5.38;3.80;;;25.20;61.20;;;;;;7650337;22;80831;-72
2022/08/12 13:28:22;;;;;;;6.38;3.58;;;25.20;61.20;;;;;;7649259;22;80160;-72
2022/08/12 13:31:23;;;;;;;4.75;3.55;;;25.20;60.60;;;;;;7649581;22;80978;-70
2022/08/12 13:34:23;;;;;;;5.00;3.25;;;25.20;60.50;;;;;;7649770;22;80440;-73
2022/08/12 13:37:27;;;;;;;4.72;3.42;;;25.30;60.60;;;;;;7647951;22;81082;-71
2022/08/12 13:40:27;;;;;;;4.63;3.83;;;25.30;60.70;;;;;;7649636;22;81825;-71
2022/08/12 13:43:28;;;;;;;5.55;3.53;;;25.30;60.60;;;;;;7649914;22;80344;-68
2022/08/12 13:46:28;;;;;;;5.47;3.50;;;25.30;60.80;;;;;;7649835;22;80623;-65
2022/08/12 13:49:32;;;;;;;4.45;3.10;;;25.20;60.30;;;;;;7648227;22;80370;-67
2022/08/12 13:52:32;;;;;;;5.40;3.78;;;25.20;59.80;;;;;;7648688;22;81200;-67
2022/08/12 13:55:33;;;;;;;5.25;3.25;;;25.20;59.30;;;;;;7649109;22;80480;-65
2022/08/12 13:58:36;;;;;;;4.20;3.00;;;25.20;59.50;;;;;;7649803;22;81109;-67
2022/08/12 14:01:36;;;;;;;4.13;2.97;;;25.10;59.60;;;;;;7649756;22;80110;-67
2022/08/12 14:04:38;;;;;;;9.35;3.72;;;25.10;59.50;;;;;;7646893;22;81302;-74
2022/08/12 14:07:38;;;;;;;14.18;4.15;;;25.10;59.80;;;;;;7649814;22;80515;-64
2022/08/12 14:10:39;;;;;;;4.40;3.90;;;25.20;60.00;;;;;;7649417;22;80852;-66
2022/08/12 14:13:40;;;;;;;4.03;3.40;;;25.20;59.70;;;;;;7649553;22;80110;-64
2022/08/12 14:16:40;;;;;;;5.82;3.90;;;25.20;59.40;;;;;;7649259;22;80567;-66
2022/08/12 14:20:12;;;;;;;4.40;3.25;;;25.20;59.60;;;;;;7647777;22;80619;-66
2022/08/12 14:23:01;;;;;;;6.18;3.25;;;25.20;59.30;;;;;;7647714;22;80446;-66
2022/08/12 14:26:02;;;;;;;6.57;3.95;;;25.20;59.30;;;;;;7646219;22;81466;-66
2022/08/12 14:29:02;;;;;;;3.53;3.20;;;25.20;59.30;;;;;;7647605;22;81712;-66
2022/08/12 14:32:06;;;;;;;5.20;3.80;;;25.20;59.30;;;;;;7649240;22;80420;-66
2022/08/12 14:35:06;;;;;;;4.72;3.22;;;25.20;58.90;;;;;;7649346;22;80207;-66
2022/08/12 14:38:07;;;;;;;3.80;3.30;;;25.20;58.80;;;;;;7647459;22;81360;-66
2022/08/12 14:41:07;;;;;;;4.60;3.85;;;25.20;58.80;;;;;;7649546;22;80261;-66
2022/08/12 14:44:08;;;;;;;4.20;3.28;;;25.20;59.00;;;;;;7649331;22;81235;-66
2022/08/12 14:47:08;;;;;;;5.88;3.60;;;25.20;59.30;;;;;;7649023;22;80455;-66
2022/08/12 14:50:09;;;;;;;3.97;3.40;;;25.20;59.40;;;;;;7648591;22;80544;-67
2022/08/12 14:53:11;;;;;;;5.03;4.07;;;25.20;59.20;;;;;;7649538;22;80310;-66
2022/08/12 14:56:12;;;;;;;5.57;4.18;;;25.20;59.20;;;;;;7649134;22;80310;-65
2022/08/12 15:02:31;;;;;;;6.80;4.28;;;25.20;59.60;;;;;;7648362;22;83748;-65
2022/08/12 15:05:36;;;;;;;4.90;4.13;;;25.20;59.60;;;;;;7649223;22;80712;-65
2022/08/12 15:08:40;;;;;;;4.17;3.77;;;25.20;59.80;;;;;;7648808;22;80724;-65
2022/08/12 15:11:41;;;;;;;8.13;4.50;;;25.20;59.70;;;;;;7648804;22;80740;-66
2022/08/12 15:14:41;;;;;;;4.55;3.45;;;25.20;59.80;;;;;;7649841;22;80228;-66
2022/08/12 15:17:42;;;;;;;4.25;3.83;;;25.20;59.90;;;;;;7650804;22;80632;-66
2022/08/12 15:20:42;;;;;;;5.13;4.40;;;25.20;60.10;;;;;;7650416;22;80358;-66
2022/08/12 15:23:43;;;;;;;5.78;4.28;;;25.20;60.10;;;;;;7650306;22;81568;-66
2022/08/12 15:26:44;;;;;;;6.75;3.80;;;25.20;60.20;;;;;;7648931;22;82383;-66
2022/08/12 15:29:44;;;;;;;7.13;3.95;;;25.20;60.10;;;;;;7650132;22;82649;-66
2022/08/12 15:32:45;;;;;;;5.03;4.50;;;25.20;59.70;;;;;;7650539;22;80330;-66
2022/08/12 15:35:45;;;;;;;10.10;4.57;;;25.20;59.90;;;;;;7650554;22;80384;-66
2022/08/12 15:38:46;;;;;;;5.88;4.28;;;25.20;59.80;;;;;;7650663;22;80902;-66
2022/08/12 15:41:46;;;;;;;4.97;4.47;;;25.30;59.70;;;;;;7650485;22;80360;-65
2022/08/12 15:44:47;;;;;;;5.75;4.65;;;25.30;59.70;;;;;;7650686;22;80302;-66
2022/08/12 15:47:47;;;;;;;6.53;4.18;;;25.30;59.80;;;;;;7650776;22;80518;-66
2022/08/12 15:50:48;;;;;;;4.90;4.45;;;25.20;59.70;;;;;;7650563;22;80716;-66
2022/08/12 15:54:03;;;;;;;5.90;5.22;;;25.20;59.70;;;;;;7650525;22;81550;-65
2022/08/12 15:57:04;;;;;;;8.47;6.07;;;25.20;59.90;;;;;;7649412;22;80520;-66
2022/08/12 16:00:04;;;;;;;7.78;4.80;;;25.20;60.00;;;;;;7650893;22;80141;-65
2022/08/12 16:03:12;;;;;;;7.75;5.40;;;25.20;60.00;;;;;;7649978;22;80259;-66
2022/08/12 16:06:12;;;;;;;9.10;5.55;;;25.20;60.10;;;;;;7649859;22;79987;-75
2022/08/12 16:09:18;;;;;;;8.02;5.25;;;25.30;60.30;;;;;;7650376;22;80717;-65
2022/08/12 16:12:19;;;;;;;;;;;25.20;60.30;;;;;;7650026;22;80589;-64
2022/08/12 16:15:19;;;;;;;9.60;6.22;;;25.20;60.60;;;;;;7656597;22;80993;-65
2022/08/12 16:18:20;;;;;;;7.68;5.75;;;25.30;60.80;;;;;;7648116;22;80391;-68
2022/08/12 16:21:20;;;;;;;7.40;5.22;;;25.20;60.70;;;;;;7648842;22;80452;-66
2022/08/12 16:24:22;;;;;;;6.75;5.85;;;25.30;60.90;;;;;;7649420;22;80278;-67
2022/08/12 16:27:24;;;;;;;9.70;5.35;;;25.30;60.90;;;;;;7648693;22;80309;-67
2022/08/12 16:30:27;;;;;;;6.85;5.47;;;25.30;61.00;;;;;;7649519;22;80656;-66
2022/08/12 16:33:27;;;;;;;6.25;5.47;;;25.30;61.10;;;;;;7649169;22;80879;-66
2022/08/12 16:36:28;;;;;;;7.90;6.03;;;25.30;61.00;;;;;;7649799;22;80976;-66
2022/08/12 16:39:31;;;;;;;10.82;6.00;;;25.40;61.10;;;;;;7650061;22;81595;-68
2022/08/12 16:42:32;;;;;;;8.68;6.57;;;25.40;61.40;;;;;;7650118;22;80379;-67
2022/08/12 16:45:38;;;;;;;7.35;5.75;;;25.30;61.40;;;;;;7650097;22;81604;-67
2022/08/12 16:48:38;;;;;;;;;;;25.30;62.00;;;;;;7650472;22;80476;-67
2022/08/12 16:51:40;;;;;;;6.80;5.82;;;25.30;61.70;;;;;;7657539;22;80236;-68
2022/08/12 16:54:42;;;;;;;8.02;6.07;;;25.30;62.00;;;;;;7649921;22;80420;-68
2022/08/12 16:57:46;;;;;;;8.80;6.18;;;25.40;61.90;;;;;;7649373;22;80545;-67
2022/08/12 17:00:47;;;;;;;7.15;5.93;;;25.30;62.10;;;;;;7649723;22;80515;-69
2022/08/12 17:03:47;;;;;;;10.50;6.40;;;25.30;62.20;;;;;;7649687;22;81653;-68
2022/08/12 17:06:48;;;;;;;7.68;5.97;;;25.30;62.00;;;;;;7650195;22;80770;-66
2022/08/12 17:09:49;;;;;;;8.38;6.15;;;25.30;62.50;;;;;;7649574;22;80597;-67
2022/08/12 17:12:49;;;;;;;7.63;6.15;;;25.30;62.80;;;;;;7648346;22;80190;-69
2022/08/12 17:15:50;;;;;;;6.07;4.63;;;25.30;62.80;;;;;;7650157;22;80672;-67
2022/08/12 17:18:50;;;;;;;5.22;4.47;;;25.30;62.70;;;;;;7650205;22;80801;-69
2022/08/12 17:21:51;;;;;;;7.00;5.10;;;25.30;62.80;;;;;;7648433;22;80310;-69
2022/08/12 17:24:52;;;;;;;10.70;5.38;;;25.30;63.10;;;;;;7650497;22;80623;-68
2022/08/12 17:27:52;;;;;;;6.85;4.68;;;25.30;63.40;;;;;;7650434;22;80437;-67
2022/08/12 17:30:52;;;;;;;5.88;5.18;;;25.30;63.40;;;;;;7650413;22;80193;-67